.
WxDataArchive / Data Records for 2008-01-03
2008-01-02 January 2008 2008-01-04

Data Records for Thursday, 03 January 2008

Time	Temp	Chill	HIndex	Humid	Dewpt	 Wind 	HiWind	WindDir	Rain 	Barom 
-----	----	-----	------	-----	-----	------	------	-------	-----	----- 
00:00	11.9	11.9	11.9	84	8.0	1	4	248	0.00	30.680 
00:05	12.1	12.1	12.1	84	8.2	1	4	248	0.00	30.679 
00:10	12.3	12.3	12.3	84	8.4	0	2	248	0.00	30.677 
00:15	12.4	12.4	12.4	83	8.2	0	2	248	0.00	30.676 
00:20	12.6	12.6	12.6	83	8.4	0	2	248	0.00	30.677 
00:25	12.8	12.8	12.8	83	8.6	1	4	248	0.00	30.677 
00:30	12.9	12.9	12.9	83	8.7	1	2	248	0.00	30.679 
00:35	13.1	13.1	13.1	83	8.9	1	2	248	0.00	30.679 
00:40	13.1	13.1	13.1	82	8.7	2	5	248	0.00	30.680 
00:45	13.3	13.3	13.3	82	8.9	1	6	248	0.00	30.680 
00:50	13.3	13.3	13.3	82	8.9	1	6	248	0.00	30.679 
00:55	13.3	13.3	13.3	81	8.6	1	4	248	0.00	30.678 
01:00	13.3	13.3	13.3	81	8.6	2	5	270	0.00	30.675 
01:05	13.3	13.3	13.3	81	8.6	1	3	248	0.00	30.674 
01:10	13.1	13.1	13.1	81	8.4	1	4	248	0.00	30.673 
01:15	13.1	13.1	13.1	81	8.4	1	4	248	0.00	30.671 
01:20	12.9	12.9	12.9	81	8.2	2	6	248	0.00	30.671 
01:25	12.9	12.9	12.9	81	8.2	1	3	270	0.00	30.675 
01:30	12.8	12.8	12.8	81	8.1	1	3	248	0.00	30.677 
01:35	12.8	12.8	12.8	81	8.1	1	4	270	0.00	30.677 
01:40	12.8	12.8	12.8	81	8.1	2	5	270	0.00	30.676 
01:45	12.8	12.8	12.8	81	8.1	2	5	248	0.00	30.672 
01:50	12.6	12.6	12.6	81	7.9	2	9	248	0.00	30.673 
01:55	12.6	12.6	12.6	81	7.9	2	6	248	0.00	30.672 
02:00	12.6	12.6	12.6	81	7.9	2	7	248	0.00	30.676 
02:05	12.6	12.6	12.6	81	7.9	2	6	248	0.00	30.678 
02:10	12.6	12.6	12.6	81	7.9	1	3	248	0.00	30.677 
02:15	12.6	12.6	12.6	81	7.9	1	6	248	0.00	30.682 
02:20	12.4	12.4	12.4	81	7.7	2	5	270	0.00	30.682 
02:25	12.4	12.4	12.4	81	7.7	1	6	248	0.00	30.682 
02:30	12.4	12.4	12.4	81	7.7	1	6	248	0.00	30.683 
02:35	12.3	12.3	12.3	81	7.6	1	4	248	0.00	30.684 
02:40	12.3	12.3	12.3	81	7.6	1	3	248	0.00	30.686 
02:45	12.3	12.3	12.3	81	7.6	0	2	248	0.00	30.687 
02:50	12.1	12.1	12.1	81	7.4	2	6	248	0.00	30.693 
02:55	12.1	12.1	12.1	81	7.4	1	4	248	0.00	30.697 
03:00	11.9	11.9	11.9	80	6.9	1	4	270	0.00	30.698 
03:05	11.7	11.7	11.7	80	6.7	1	4	270	0.00	30.701 
03:10	11.6	11.6	11.6	80	6.6	1	7	248	0.00	30.701 
03:15	11.4	11.4	11.4	80	6.5	1	3	270	0.00	30.702 
03:20	11.4	11.4	11.4	80	6.5	1	2	270	0.00	30.703 
03:25	11.4	11.4	11.4	81	6.7	0	3	248	0.00	30.704 
03:30	11.4	11.4	11.4	81	6.7	0	2	248	0.00	30.705 
03:35	11.4	11.4	11.4	81	6.7	0	1	248	0.00	30.704 
03:40	11.4	11.4	11.4	81	6.7	1	3	248	0.00	30.703 
03:45	11.4	11.4	11.4	81	6.7	0	2	248	0.00	30.703 
03:50	11.4	11.4	11.4	81	6.7	1	3	248	0.00	30.702 
03:55	11.4	11.4	11.4	81	6.7	1	4	248	0.00	30.702 
04:00	11.4	11.4	11.4	81	6.7	0	3	248	0.00	30.701 
04:05	11.4	11.4	11.4	81	6.7	0	2	248	0.00	30.702 
04:10	11.6	11.6	11.6	81	6.9	0	1	248	0.00	30.702 
04:15	11.6	11.6	11.6	81	6.9	0	3	248	0.00	30.702 
04:20	11.6	11.6	11.6	81	6.9	0	1	248	0.00	30.702 
04:25	11.6	11.6	11.6	81	6.9	0	2	248	0.00	30.702 
04:30	11.7	11.7	11.7	82	7.3	0	1	248	0.00	30.700 
04:35	11.7	11.7	11.7	82	7.3	0	4	248	0.00	30.700 
04:40	11.9	11.9	11.9	81	7.2	0	2	248	0.00	30.700 
04:45	11.9	11.9	11.9	81	7.2	0	2	248	0.00	30.701 
04:50	11.9	11.9	11.9	81	7.2	0	2	248	0.00	30.702 
04:55	11.9	11.9	11.9	81	7.2	0	2	248	0.00	30.702 
05:00	11.9	11.9	11.9	82	7.5	1	2	248	0.00	30.703 
05:05	11.9	11.9	11.9	81	7.2	1	5	248	0.00	30.703 
05:10	11.9	11.9	11.9	81	7.2	1	4	248	0.00	30.705 
05:15	12.1	12.1	12.1	82	7.7	0	2	270	0.00	30.708 
05:20	12.1	12.1	12.1	82	7.7	0	2	270	0.00	30.712 
05:25	12.1	12.1	12.1	82	7.7	0	1	270	0.00	30.709 
05:30	12.1	12.1	12.1	82	7.7	0	3	248	0.00	30.709 
05:35	12.1	12.1	12.1	82	7.7	0	2	248	0.00	30.710 
05:40	12.1	12.1	12.1	82	7.7	1	4	248	0.00	30.708 
05:45	12.3	12.3	12.3	82	7.9	0	3	248	0.00	30.710 
05:50	12.3	12.3	12.3	82	7.9	0	1	248	0.00	30.715 
05:55	12.4	12.4	12.4	82	8.0	0	1	248	0.00	30.718 
06:00	12.4	12.4	12.4	82	8.0	0	2	248	0.00	30.719 
06:05	12.6	12.6	12.6	82	8.2	0	2	248	0.00	30.724 
06:10	12.6	12.6	12.6	82	8.2	0	1	248	0.00	30.724 
06:15	12.6	12.6	12.6	82	8.2	0	2	248	0.00	30.723 
06:20	12.4	12.4	12.4	82	8.0	0	2	248	0.00	30.724 
06:25	12.4	12.4	12.4	82	8.0	0	2	248	0.00	30.722 
06:30	12.4	12.4	12.4	82	8.0	1	3	248	0.00	30.726 
06:35	12.4	12.4	12.4	82	8.0	0	2	248	0.00	30.725 
06:40	12.4	12.4	12.4	82	8.0	1	4	248	0.00	30.728 
06:45	12.4	12.4	12.4	82	8.0	0	2	225	0.00	30.731 
06:50	12.4	12.4	12.4	82	8.0	0	2	225	0.00	30.733 
06:55	12.4	12.4	12.4	82	8.0	1	5	248	0.00	30.733 
07:00	12.4	12.4	12.4	81	7.7	0	2	248	0.00	30.734 
07:05	12.4	12.4	12.4	81	7.7	1	4	248	0.00	30.735 
07:10	12.1	12.1	12.1	81	7.4	1	6	248	0.00	30.734 
07:15	11.9	11.9	11.9	80	6.9	1	5	248	0.00	30.734 
07:20	11.9	11.9	11.9	81	7.2	0	2	248	0.00	30.739 
07:25	11.7	11.7	11.7	81	7.0	1	5	248	0.00	30.744 
07:30	11.7	11.7	11.7	81	7.0	1	4	248	0.00	30.738 
07:35	11.7	11.7	11.7	81	7.0	1	3	248	0.00	30.736 
07:40	11.7	11.7	11.7	81	7.0	1	3	248	0.00	30.736 
07:45	11.4	11.4	11.4	81	6.7	1	3	248	0.00	30.737 
07:50	11.1	11.1	11.1	80	6.2	1	4	248	0.00	30.738 
07:55	10.9	10.9	10.9	80	6.0	1	3	248	0.00	30.738 
08:00	10.7	10.7	10.7	80	5.8	1	3	248	0.00	30.744 
08:05	10.5	10.5	10.5	81	5.8	1	3	248	0.00	30.748 
08:10	10.5	10.5	10.5	81	5.8	0	2	248	0.00	30.744 
08:15	10.2	10.2	10.2	80	5.3	1	3	248	0.00	30.743 
08:20	10.0	10.0	10.0	80	5.1	1	4	248	0.00	30.749 
08:25	9.9	9.9	9.9	80	5.0	1	3	248	0.00	30.748 
08:30	9.7	9.7	9.7	80	4.8	0	2	248	0.00	30.744 
08:35	9.5	9.5	9.5	80	4.6	0	3	248	0.00	30.745 
08:40	9.3	9.3	9.3	80	4.4	1	4	248	0.00	30.744 
08:45	9.3	9.3	9.3	80	4.4	1	4	248	0.00	30.743 
08:50	9.3	9.3	9.3	79	4.1	1	4	270	0.00	30.743 
08:55	9.2	9.2	9.2	79	4.0	2	4	248	0.00	30.745 
09:00	9.0	9.0	9.0	79	3.8	2	6	248	0.00	30.747 
09:05	9.0	9.0	9.0	79	3.8	1	5	248	0.00	30.747 
09:10	9.0	9.0	9.0	79	3.8	1	4	248	0.00	30.749 
09:15	9.2	9.2	9.2	79	4.0	1	3	270	0.00	30.751 
09:20	9.2	9.2	9.2	79	4.0	1	3	248	0.00	30.750 
09:25	9.3	9.3	9.3	79	4.1	1	4	270	0.00	30.752 
09:30	9.3	9.3	9.3	79	4.1	1	4	248	0.00	30.753 
09:35	9.5	9.5	9.5	78	4.0	2	6	248	0.00	30.752 
09:40	9.5	9.5	9.5	78	4.0	1	4	248	0.00	30.753 
09:45	9.7	9.7	9.7	78	4.2	1	4	270	0.00	30.751 
09:50	9.9	9.9	9.9	78	4.4	0	2	248	0.00	30.751 
09:55	10.0	10.0	10.0	77	4.3	1	3	248	0.00	30.753 
10:00	10.2	10.2	10.2	77	4.5	1	4	248	0.00	30.755 
10:05	10.5	10.5	10.5	77	4.7	1	3	248	0.00	30.751 
10:10	10.7	10.7	10.7	77	4.9	1	5	248	0.00	30.754 
10:15	10.9	10.9	10.9	77	5.1	1	3	248	0.00	30.752 
10:20	11.2	11.2	11.2	77	5.4	1	4	248	0.00	30.754 
10:25	11.6	11.6	11.6	76	5.5	0	1	248	0.00	30.752 
10:30	11.7	11.7	11.7	75	5.3	0	2	248	0.00	30.749 
10:35	11.9	11.9	11.9	75	5.5	1	4	270	0.00	30.750 
10:40	11.9	11.9	11.9	74	5.2	0	3	248	0.00	30.750 
10:45	12.3	12.3	12.3	74	5.6	0	2	248	0.00	30.749 
10:50	12.3	12.3	12.3	73	5.3	1	3	248	0.00	30.751 
10:55	12.3	12.3	12.3	72	5.0	2	5	248	0.00	30.751 
11:00	12.3	12.3	12.3	72	5.0	2	6	248	0.00	30.750 
11:05	12.4	12.4	12.4	72	5.1	0	3	248	0.00	30.748 
11:10	12.6	12.6	12.6	72	5.3	0	2	248	0.00	30.747 
11:15	12.6	12.6	12.6	71	5.0	1	3	90	0.00	30.747 
11:20	12.6	12.6	12.6	72	5.3	0	2	248	0.00	30.746 
11:25	12.8	12.8	12.8	71	5.2	1	3	270	0.00	30.746 
11:30	12.8	12.8	12.8	71	5.2	1	3	68	0.00	30.746 
11:35	12.9	12.9	12.9	71	5.3	0	2	270	0.00	30.743 
11:40	13.1	13.1	13.1	71	5.5	0	3	248	0.00	30.744 
11:45	13.3	13.3	13.3	70	5.4	2	6	248	0.00	30.741 
11:50	13.5	13.5	13.5	70	5.6	2	5	270	0.00	30.739 
11:55	13.5	13.5	13.5	69	5.3	2	7	248	0.00	30.734 
12:00	13.6	13.6	13.6	70	5.7	1	4	248	0.00	30.731 
12:05	13.8	13.8	13.8	69	5.5	2	5	248	0.00	30.729 
12:10	14.0	14.0	14.0	69	5.7	2	6	248	0.00	30.729 
12:15	14.0	14.0	14.0	69	5.7	1	4	248	0.00	30.726 
12:20	14.1	14.1	14.1	69	5.8	1	4	248	0.00	30.728 
12:25	14.4	14.4	14.4	68	5.8	2	5	248	0.00	30.726 
12:30	14.6	14.6	14.6	68	6.0	1	4	248	0.00	30.720 
12:35	14.6	14.6	14.6	68	6.0	2	6	248	0.00	30.714 
12:40	14.8	14.8	14.8	68	6.2	1	5	248	0.00	30.711 
12:45	14.6	14.6	14.6	67	5.7	2	7	248	0.00	30.711 
12:50	14.8	14.8	14.8	68	6.2	1	4	270	0.00	30.711 
12:55	14.9	14.9	14.9	68	6.3	2	5	248	0.00	30.711 
13:00	15.1	15.1	15.1	67	6.1	1	5	248	0.00	30.710 
13:05	15.2	15.2	15.2	68	6.6	1	4	248	0.00	30.707 
13:10	15.4	15.4	15.4	67	6.4	2	5	248	0.00	30.703 
13:15	15.2	15.2	15.2	66	5.9	2	7	270	0.00	30.699 
13:20	15.4	15.4	15.4	67	6.4	2	5	248	0.00	30.696 
13:25	15.6	15.6	15.6	68	7.0	2	5	248	0.00	30.694 
13:30	15.7	15.7	15.7	66	6.4	2	7	248	0.00	30.692 
13:35	15.9	15.9	15.9	67	6.9	2	5	248	0.00	30.688 
13:40	16.1	16.1	16.1	66	6.8	2	5	248	0.00	30.683 
13:45	16.2	16.2	16.2	67	7.2	2	4	248	0.00	30.680 
13:50	16.5	16.5	16.5	66	7.2	1	5	248	0.00	30.678 
13:55	16.7	16.7	16.7	67	7.7	1	4	248	0.00	30.677 
14:00	16.7	16.7	16.7	66	7.3	1	5	248	0.00	30.676 
14:05	16.9	16.9	16.9	66	7.5	1	5	248	0.00	30.678 
14:10	17.0	17.0	17.0	66	7.6	1	3	270	0.00	30.676 
14:15	16.9	16.9	16.9	66	7.5	3	7	248	0.00	30.673 
14:20	16.7	16.7	16.7	66	7.3	2	5	248	0.00	30.669 
14:25	16.9	16.9	16.9	65	7.2	2	7	248	0.00	30.666 
14:30	16.9	16.9	16.9	65	7.2	2	6	248	0.00	30.665 
14:35	16.9	16.9	16.9	65	7.2	2	10	248	0.00	30.664 
14:40	16.9	16.9	16.9	65	7.2	2	9	248	0.00	30.659 
14:45	16.9	16.9	16.9	65	7.2	1	6	248	0.00	30.651 
14:50	16.9	16.9	16.9	65	7.2	2	7	248	0.00	30.649 
14:55	16.9	16.9	16.9	66	7.5	2	10	248	0.00	30.647 
15:00	16.9	16.9	16.9	65	7.2	2	9	270	0.00	30.637 
15:05	16.9	16.9	16.9	66	7.5	2	7	270	0.00	30.636 
15:10	16.7	16.7	16.7	66	7.3	2	5	68	0.00	30.633 
15:15	16.7	16.7	16.7	66	7.3	1	6	225	0.00	30.632 
15:20	17.0	17.0	17.0	67	8.0	2	5	248	0.00	30.630 
15:25	17.2	17.2	17.2	65	7.5	2	9	225	0.00	30.628 
15:30	17.2	17.2	17.2	65	7.5	3	6	248	0.00	30.628 
15:35	17.2	17.2	17.2	65	7.5	1	9	248	0.00	30.627 
15:40	17.2	17.2	17.2	65	7.5	2	7	270	0.00	30.625 
15:45	17.5	17.5	17.5	66	8.1	1	4	202	0.00	30.626 
15:50	17.7	17.7	17.7	65	8.0	3	8	248	0.00	30.627 
15:55	17.8	17.8	17.8	66	8.4	1	5	248	0.00	30.621 
16:00	17.8	17.8	17.8	65	8.1	1	5	248	0.00	30.620 
16:05	17.8	17.8	17.8	66	8.4	1	5	248	0.00	30.616 
16:10	17.8	17.8	17.8	66	8.4	1	3	248	0.00	30.616 
16:15	17.8	17.8	17.8	66	8.4	1	7	248	0.00	30.616 
16:20	17.8	17.8	17.8	67	8.7	1	6	248	0.00	30.616 
16:25	17.8	17.8	17.8	67	8.7	1	4	248	0.00	30.616 
16:30	17.7	17.7	17.7	67	8.6	1	5	315	0.00	30.615 
16:35	17.5	17.5	17.5	67	8.4	1	3	22	0.00	30.616 
16:40	17.3	17.3	17.3	67	8.3	1	4	45	0.00	30.618 
16:45	17.3	17.3	17.3	68	8.6	1	4	248	0.00	30.618 
16:50	17.3	17.3	17.3	69	8.9	1	3	270	0.00	30.617 
16:55	17.2	17.2	17.2	69	8.8	1	4	248	0.00	30.615 
17:00	17.2	17.2	17.2	69	8.8	1	4	248	0.00	30.615 
17:05	17.0	17.0	17.0	69	8.6	1	3	248	0.00	30.614 
17:10	16.9	16.9	16.9	69	8.5	1	3	248	0.00	30.611 
17:15	16.9	16.9	16.9	70	8.8	0	2	248	0.00	30.610 
17:20	16.7	16.7	16.7	70	8.6	0	1	248	0.00	30.608 
17:25	16.5	16.5	16.5	70	8.5	0	3	248	0.00	30.606 
17:30	16.4	16.4	16.4	71	8.7	0	2	248	0.00	30.603 
17:35	16.2	16.2	16.2	71	8.5	0	1	248	0.00	30.602 
17:40	16.2	16.2	16.2	71	8.5	0	2	248	0.00	30.601 
17:45	16.2	16.2	16.2	71	8.5	0	2	248	0.00	30.600 
17:50	16.1	16.1	16.1	72	8.7	0	2	248	0.00	30.600 
17:55	15.9	15.9	15.9	72	8.5	0	2	248	0.00	30.599 
18:00	15.7	15.7	15.7	72	8.3	0	1	248	0.00	30.597 
18:05	15.7	15.7	15.7	72	8.3	0	1	248	0.00	30.597 
18:10	15.7	15.7	15.7	72	8.3	0	2	270	0.00	30.598 
18:15	15.7	15.7	15.7	73	8.6	0	1	292	0.00	30.598 
18:20	15.6	15.6	15.6	73	8.5	0	1	292	0.00	30.595 
18:25	15.4	15.4	15.4	73	8.3	0	1	292	0.00	30.600 
18:30	15.4	15.4	15.4	73	8.3	0	1	292	0.00	30.599 
18:35	15.2	15.2	15.2	73	8.1	0	1	292	0.00	30.598 
18:40	15.1	15.1	15.1	73	8.0	0	1	292	0.00	30.593 
18:45	15.1	15.1	15.1	74	8.3	0	1	292	0.00	30.589 
18:50	15.1	15.1	15.1	74	8.3	0	1	292	0.00	30.587 
18:55	15.2	15.2	15.2	74	8.4	1	3	90	0.00	30.587 
19:00	15.4	15.4	15.4	74	8.6	0	2	68	0.00	30.586 
19:05	15.4	15.4	15.4	74	8.6	0	2	292	0.00	30.586 
19:10	15.4	15.4	15.4	74	8.6	0	2	112	0.00	30.584 
19:15	15.4	15.4	15.4	74	8.6	1	2	112	0.00	30.579 
19:20	15.4	15.4	15.4	74	8.6	1	3	112	0.00	30.575 
19:25	15.6	15.6	15.6	74	8.8	0	2	112	0.00	30.574 
19:30	15.4	15.4	15.4	74	8.6	0	2	112	0.00	30.571 
19:35	15.2	15.2	15.2	74	8.4	0	3	90	0.00	30.571 
19:40	15.4	15.4	15.4	74	8.6	1	3	135	0.00	30.570 
19:45	15.4	15.4	15.4	74	8.6	0	2	135	0.00	30.570 
19:50	15.2	15.2	15.2	75	8.7	0	2	0	0.00	30.568 
19:55	15.2	15.2	15.2	75	8.7	1	2	45	0.00	30.566 
20:00	15.2	15.2	15.2	75	8.7	0	2	45	0.00	30.562 
20:05	15.2	15.2	15.2	76	9.0	0	3	22	0.00	30.562 
20:10	15.4	15.4	15.4	76	9.2	0	2	22	0.00	30.560 
20:15	15.4	15.4	15.4	76	9.2	0	2	90	0.00	30.557 
20:20	15.4	15.4	15.4	76	9.2	1	3	90	0.00	30.555 
20:25	15.4	15.4	15.4	76	9.2	0	2	45	0.00	30.555 
20:30	15.6	15.6	15.6	76	9.4	1	5	45	0.00	30.552 
20:35	15.7	15.7	15.7	76	9.5	1	3	68	0.00	30.547 
20:40	15.7	15.7	15.7	76	9.5	1	3	68	0.00	30.543 
20:45	15.9	15.9	15.9	76	9.7	1	3	0	0.00	30.540 
20:50	15.9	15.9	15.9	77	10.0	1	2	45	0.00	30.539 
20:55	15.9	15.9	15.9	77	10.0	1	3	90	0.00	30.534 
21:00	15.9	15.9	15.9	77	10.0	1	3	68	0.00	30.531 
21:05	15.9	15.9	15.9	77	10.0	1	6	315	0.00	30.528 
21:10	15.9	15.9	15.9	77	10.0	1	6	0	0.00	30.525 
21:15	15.9	15.9	15.9	77	10.0	1	4	68	0.00	30.524 
21:20	15.9	15.9	15.9	77	10.0	0	3	90	0.00	30.523 
21:25	15.9	15.9	15.9	77	10.0	1	3	270	0.00	30.522 
21:30	15.7	15.7	15.7	77	9.8	0	2	248	0.00	30.519 
21:35	15.7	15.7	15.7	77	9.8	1	3	112	0.00	30.513 
21:40	15.7	15.7	15.7	77	9.8	0	2	68	0.00	30.511 
21:45	15.9	15.9	15.9	77	10.0	1	3	292	0.00	30.509 
21:50	15.9	15.9	15.9	77	10.0	1	3	292	0.00	30.509 
21:55	15.9	15.9	15.9	77	10.0	0	2	292	0.00	30.508 
22:00	16.1	16.1	16.1	77	10.2	0	3	248	0.00	30.507 
22:05	16.2	16.2	16.2	77	10.3	1	4	338	0.00	30.505 
22:10	16.4	16.4	16.4	77	10.5	1	5	248	0.00	30.504 
22:15	16.7	16.7	16.7	77	10.8	1	6	270	0.00	30.501 
22:20	17.2	17.2	17.2	77	11.3	1	6	270	0.00	30.495 
22:25	17.3	17.3	17.3	76	11.1	2	4	248	0.00	30.494 
22:30	17.5	17.5	17.5	75	11.0	2	6	248	0.00	30.491 
22:35	17.7	17.7	17.7	75	11.1	1	5	248	0.00	30.490 
22:40	17.7	17.7	17.7	75	11.1	1	5	270	0.00	30.490 
22:45	17.8	17.8	17.8	75	11.2	1	4	270	0.00	30.488 
22:50	17.8	17.8	17.8	75	11.2	2	6	270	0.00	30.487 
22:55	18.0	18.0	18.0	74	11.1	2	6	248	0.00	30.485 
23:00	18.0	18.0	18.0	74	11.1	2	5	270	0.00	30.483 
23:05	18.1	18.1	18.1	74	11.2	2	6	248	0.00	30.478 
23:10	18.1	18.1	18.1	74	11.2	2	10	248	0.00	30.478 
23:15	18.3	18.3	18.3	74	11.4	2	6	270	0.00	30.479 
23:20	18.4	18.4	18.4	74	11.5	2	7	248	0.00	30.483 
23:25	18.6	18.6	18.6	73	11.4	2	6	248	0.00	30.486 
23:30	18.6	18.6	18.6	73	11.4	2	8	270	0.00	30.486 
23:35	18.8	18.8	18.8	73	11.6	2	6	248	0.00	30.486 
23:40	18.9	18.9	18.9	73	11.7	2	5	248	0.00	30.485 
23:45	19.1	19.1	19.1	73	11.9	2	9	248	0.00	30.486 
23:50	18.9	18.9	18.9	73	11.7	2	5	248	0.00	30.486 
23:55	19.1	19.1	19.1	73	11.9	1	4	248	0.00	30.486 

CoCoRaHS
IN-AL-39
A2 Web Hosting
Creative Commons License
GoDaddy
Look for:

loaded 2017-12-13 19:54:38 • last modified 2010-11-18 10:43:29
Privacy PolicyDisclaimer
• wx.awcolley.com is powered by PmWiki v.2002016 •
• all content (unless otherwise noted) © 2017 A W Colley